createdAt,value
2024-02-16T00:00:17.665Z,95.03
2024-02-16T00:02:47.400Z,99.28
2024-02-16T00:05:15.079Z,88.53
2024-02-16T00:07:43.031Z,93.22
2024-02-16T00:10:10.905Z,86.85
2024-02-16T00:12:41.356Z,90.15
2024-02-16T00:15:11.724Z,85.55
2024-02-16T00:17:39.638Z,79.57
2024-02-16T00:20:08.424Z,88.55
2024-02-16T00:22:36.505Z,86.78
2024-02-16T00:25:04.508Z,86.65
2024-02-16T00:27:32.410Z,80.25
2024-02-16T00:30:00.400Z,85.68
2024-02-16T00:32:31.806Z,79.78
2024-02-16T00:34:59.784Z,81.95
2024-02-16T00:37:27.299Z,73.15
2024-02-16T00:39:56.072Z,71.00
2024-02-16T00:42:24.089Z,67.18
2024-02-16T00:44:51.992Z,71.72
2024-02-16T00:47:19.488Z,70.90
2024-02-16T00:49:48.378Z,67.00
2024-02-16T00:52:15.868Z,61.70
2024-02-16T00:54:43.477Z,60.42
2024-02-16T00:57:10.997Z,63.45
2024-02-16T00:59:38.715Z,59.88
2024-02-16T01:02:06.156Z,56.20
2024-02-16T01:04:33.766Z,61.30
2024-02-16T01:07:02.670Z,64.50
2024-02-16T01:09:30.553Z,60.47
2024-02-16T01:11:58.083Z,60.72
2024-02-16T01:14:26.080Z,58.30
2024-02-16T01:16:53.722Z,59.22
2024-02-16T01:19:21.609Z,59.38
2024-02-16T01:21:53.370Z,60.13
2024-02-16T01:24:22.706Z,57.50
2024-02-16T01:26:50.300Z,64.30
2024-02-16T01:29:18.415Z,62.60
2024-02-16T01:31:45.881Z,61.80
2024-02-16T01:34:13.524Z,62.25
2024-02-16T01:36:41.255Z,63.97
2024-02-16T01:39:09.217Z,60.08
2024-02-16T01:41:40.212Z,67.78
2024-02-16T01:44:07.749Z,64.05
2024-02-16T01:46:36.826Z,59.35
2024-02-16T01:49:05.369Z,62.65
2024-02-16T01:51:33.156Z,57.85
2024-02-16T01:54:02.038Z,57.45
2024-02-16T01:56:30.252Z,66.13
2024-02-16T01:58:59.534Z,60.80
2024-02-16T02:01:27.598Z,61.85
2024-02-16T02:03:55.104Z,60.78
2024-02-16T02:06:22.766Z,56.00
2024-02-16T02:08:50.707Z,54.95
2024-02-16T02:11:18.661Z,58.20
2024-02-16T02:13:46.169Z,57.17
2024-02-16T02:16:15.407Z,57.53
2024-02-16T02:18:43.746Z,48.75
2024-02-16T02:21:11.704Z,52.95
2024-02-16T02:23:40.511Z,49.15
2024-02-16T02:26:08.177Z,52.58
2024-02-16T02:28:35.870Z,50.17
2024-02-16T02:31:04.273Z,49.47
2024-02-16T02:33:32.930Z,51.53
2024-02-16T02:36:00.462Z,52.33
2024-02-16T02:38:28.480Z,55.30
2024-02-16T02:40:57.791Z,48.17
2024-02-16T02:43:26.207Z,46.97
2024-02-16T02:45:53.644Z,50.92
2024-02-16T02:48:21.499Z,48.47
2024-02-16T02:50:49.104Z,53.75
2024-02-16T02:53:16.672Z,50.72
2024-02-16T02:55:44.480Z,45.28
2024-02-16T02:58:13.293Z,49.28
2024-02-16T03:00:41.066Z,50.58
2024-02-16T03:03:08.568Z,48.72
2024-02-16T03:05:38.475Z,51.15
2024-02-16T03:08:06.328Z,51.45
2024-02-16T03:10:36.191Z,49.35
2024-02-16T03:13:03.925Z,49.67
2024-02-16T03:15:33.204Z,48.25
2024-02-16T03:18:00.895Z,54.45
2024-02-16T03:20:28.692Z,47.33
2024-02-16T03:22:56.889Z,49.17
2024-02-16T03:25:25.019Z,47.35
2024-02-16T03:27:54.219Z,50.13
2024-02-16T03:30:22.049Z,49.13
2024-02-16T03:32:51.794Z,48.22
2024-02-16T03:35:19.739Z,49.97
2024-02-16T03:37:47.229Z,55.13
2024-02-16T03:40:14.976Z,51.03
2024-02-16T03:42:42.922Z,49.88
2024-02-16T03:45:11.030Z,50.10
2024-02-16T03:47:38.543Z,48.40
2024-02-16T03:50:08.095Z,50.30
2024-02-16T03:52:35.906Z,49.13
2024-02-16T03:55:03.684Z,48.55
2024-02-16T03:57:32.956Z,49.72
2024-02-16T04:00:00.947Z,48.58
2024-02-16T04:02:28.656Z,51.80
2024-02-16T04:04:56.094Z,53.17
2024-02-16T04:07:25.327Z,48.15
2024-02-16T04:09:52.770Z,48.45
2024-02-16T04:12:20.375Z,48.90
2024-02-16T04:14:48.282Z,48.42
2024-02-16T04:17:15.801Z,47.13
2024-02-16T04:19:43.894Z,46.90
2024-02-16T04:22:11.501Z,52.53
2024-02-16T04:24:40.794Z,50.25
2024-02-16T04:27:09.319Z,44.22
2024-02-16T04:29:37.494Z,50.55
2024-02-16T04:32:05.197Z,46.72
2024-02-16T04:34:33.006Z,48.47
2024-02-16T04:37:00.509Z,44.17
2024-02-16T04:39:30.759Z,50.00
2024-02-16T04:41:59.699Z,44.50
2024-02-16T04:44:27.898Z,47.83
2024-02-16T04:46:55.325Z,44.97
2024-02-16T04:49:23.073Z,48.38
2024-02-16T04:51:50.597Z,48.10
2024-02-16T04:54:18.348Z,49.67
2024-02-16T04:56:45.919Z,46.78
2024-02-16T04:59:14.940Z,45.92
2024-02-16T05:01:42.477Z,47.90
2024-02-16T05:04:10.464Z,46.03
2024-02-16T05:06:40.526Z,46.92
2024-02-16T05:09:08.032Z,43.95
2024-02-16T05:11:36.032Z,43.33
2024-02-16T05:14:03.464Z,42.90
2024-02-16T05:16:33.541Z,42.28
2024-02-16T05:19:01.205Z,43.10
2024-02-16T05:21:29.035Z,45.90
2024-02-16T05:23:56.848Z,50.03
2024-02-16T05:26:24.651Z,46.33
2024-02-16T05:28:52.097Z,44.38
2024-02-16T05:31:20.003Z,44.38
2024-02-16T05:33:50.192Z,50.55
2024-02-16T05:36:19.575Z,46.35
2024-02-16T05:38:47.165Z,42.38
2024-02-16T05:41:14.909Z,45.88
2024-02-16T05:43:44.490Z,45.47
2024-02-16T05:46:15.074Z,44.25
2024-02-16T05:48:42.599Z,44.72
2024-02-16T05:51:13.737Z,46.80
2024-02-16T05:53:41.488Z,45.13
2024-02-16T05:56:08.955Z,42.58
2024-02-16T05:58:36.720Z,51.53
2024-02-16T06:01:04.383Z,58.60
2024-02-16T06:03:32.559Z,65.43
2024-02-16T06:06:00.253Z,78.00
2024-02-16T06:08:30.815Z,81.97
2024-02-16T06:10:58.578Z,69.25
2024-02-16T06:13:26.150Z,80.38
2024-02-16T06:15:53.594Z,69.47
2024-02-16T06:18:21.363Z,71.00
2024-02-16T06:20:49.102Z,65.15
2024-02-16T06:23:18.245Z,66.00
2024-02-16T06:25:47.341Z,60.10
2024-02-16T06:28:14.849Z,60.55
2024-02-16T06:30:42.619Z,63.63
2024-02-16T06:33:11.388Z,65.72
2024-02-16T06:35:39.241Z,68.90
2024-02-16T06:38:06.688Z,65.43
2024-02-16T06:40:34.393Z,67.82
2024-02-16T06:43:03.151Z,62.53
2024-02-16T06:45:31.776Z,63.58
2024-02-16T06:47:59.325Z,66.50
2024-02-16T06:50:27.532Z,66.97
2024-02-16T06:52:56.396Z,62.33
2024-02-16T06:55:24.487Z,65.53
2024-02-16T06:57:52.021Z,66.50
2024-02-16T07:00:23.303Z,68.22
2024-02-16T07:02:50.837Z,61.58
2024-02-16T07:05:19.387Z,61.83
2024-02-16T07:07:46.885Z,61.65
2024-02-16T07:10:15.037Z,63.22
2024-02-16T07:12:42.823Z,61.67
2024-02-16T07:15:11.159Z,59.88
2024-02-16T07:17:40.045Z,59.05
2024-02-16T07:20:08.591Z,65.20
2024-02-16T07:22:36.081Z,59.63
2024-02-16T07:25:04.352Z,64.38
2024-02-16T07:27:31.912Z,61.40
2024-02-16T07:29:59.479Z,58.95
2024-02-16T07:32:27.031Z,65.05
2024-02-16T07:34:55.924Z,60.42
2024-02-16T07:37:23.632Z,66.93
2024-02-16T07:39:52.573Z,64.60
2024-02-16T07:42:20.024Z,62.65
2024-02-16T07:44:47.496Z,62.78
2024-02-16T07:47:15.211Z,60.85
2024-02-16T07:49:42.866Z,60.35
2024-02-16T07:52:12.013Z,61.35
2024-02-16T07:54:39.987Z,62.72
2024-02-16T07:57:07.843Z,62.03
2024-02-16T07:59:35.294Z,56.53
2024-02-16T08:02:04.280Z,57.58
2024-02-16T08:04:31.735Z,62.50
2024-02-16T08:06:59.494Z,60.00
2024-02-16T08:09:28.383Z,60.63
2024-02-16T08:11:56.031Z,61.60
2024-02-16T08:14:23.587Z,68.80
2024-02-16T08:16:53.412Z,64.13
2024-02-16T08:19:23.408Z,59.00
2024-02-16T08:21:50.893Z,63.60
2024-02-16T08:24:18.675Z,62.33
2024-02-16T08:26:47.607Z,62.13
2024-02-16T08:29:15.318Z,64.95
2024-02-16T08:31:42.731Z,62.88
2024-02-16T08:34:12.050Z,59.83
2024-02-16T08:36:41.448Z,63.15
2024-02-16T08:39:09.206Z,60.50
2024-02-16T08:41:36.671Z,63.80
2024-02-16T08:44:05.865Z,64.38
2024-02-16T08:46:33.313Z,61.03
2024-02-16T08:49:01.235Z,61.90
2024-02-16T08:51:29.164Z,60.30
2024-02-16T08:53:56.870Z,63.80
2024-02-16T08:56:24.346Z,65.85
2024-02-16T08:58:51.780Z,62.30
2024-02-16T09:01:20.680Z,62.15
2024-02-16T09:03:48.332Z,57.63
2024-02-16T09:06:16.238Z,59.05
2024-02-16T09:08:43.881Z,63.70
2024-02-16T09:11:12.464Z,56.08
2024-02-16T09:13:41.936Z,60.97
2024-02-16T09:16:09.715Z,60.83
2024-02-16T09:18:39.034Z,57.92
2024-02-16T09:21:06.927Z,57.35
2024-02-16T09:23:35.224Z,64.13
2024-02-16T09:26:02.812Z,59.85
2024-02-16T09:28:31.055Z,55.78
2024-02-16T09:30:58.890Z,62.90
2024-02-16T09:33:28.312Z,58.38
2024-02-16T09:35:57.402Z,60.65
2024-02-16T09:38:24.902Z,65.50
2024-02-16T09:40:52.909Z,64.95
2024-02-16T09:43:27.478Z,65.78
2024-02-16T09:45:58.971Z,66.82
2024-02-16T09:48:28.156Z,63.65
2024-02-16T09:50:58.330Z,61.08
2024-02-16T09:53:26.397Z,66.72
2024-02-16T09:55:54.694Z,66.85
2024-02-16T09:58:22.458Z,69.43
2024-02-16T10:00:50.914Z,65.10
2024-02-16T10:03:28.550Z,64.10
2024-02-16T10:06:08.166Z,64.32
2024-02-16T10:08:36.229Z,63.83
2024-02-16T10:11:04.800Z,67.75
2024-02-16T10:13:32.811Z,65.32
2024-02-16T10:16:09.624Z,64.18
2024-02-16T10:18:37.992Z,58.53
2024-02-16T10:21:07.115Z,68.15
2024-02-16T10:23:43.496Z,73.15
2024-02-16T10:26:12.014Z,64.78
2024-02-16T10:28:40.341Z,76.47
2024-02-16T10:31:08.494Z,69.63
2024-02-16T10:33:36.936Z,72.60
2024-02-16T10:36:06.513Z,79.97
2024-02-16T10:38:36.019Z,75.05
2024-02-16T10:41:03.978Z,81.72
2024-02-16T10:43:32.235Z,87.65
2024-02-16T10:46:00.948Z,76.47
2024-02-16T10:48:28.524Z,82.50
2024-02-16T10:50:58.866Z,81.22
2024-02-16T10:53:27.789Z,86.35
2024-02-16T10:55:59.274Z,79.55
2024-02-16T10:58:26.877Z,81.22
2024-02-16T11:00:55.110Z,80.07
2024-02-16T11:03:26.730Z,78.53
2024-02-16T11:05:54.984Z,80.97
2024-02-16T11:08:23.204Z,75.10
2024-02-16T11:10:59.050Z,72.72
2024-02-16T11:13:27.349Z,73.25
2024-02-16T11:16:02.294Z,71.90
2024-02-16T11:18:30.658Z,71.55
2024-02-16T11:21:01.909Z,78.85
2024-02-16T11:23:30.395Z,87.45
2024-02-16T11:26:03.920Z,89.20
2024-02-16T11:28:33.656Z,82.78
2024-02-16T11:31:02.156Z,92.25
2024-02-16T11:33:30.194Z,89.95
2024-02-16T11:35:58.772Z,100.90
2024-02-16T11:38:26.888Z,104.88
2024-02-16T11:40:58.431Z,108.15
2024-02-16T11:43:27.977Z,111.25
2024-02-16T11:45:55.600Z,113.45
2024-02-16T11:48:24.901Z,115.65
2024-02-16T11:51:00.427Z,117.18
2024-02-16T11:53:27.984Z,116.35
2024-02-16T11:55:55.420Z,109.13
2024-02-16T11:58:23.536Z,112.05
2024-02-16T12:00:53.028Z,116.25
2024-02-16T12:03:21.738Z,117.22
2024-02-16T12:05:52.784Z,104.75
2024-02-16T12:08:21.154Z,108.97
2024-02-16T12:10:48.809Z,104.35
2024-02-16T12:13:17.659Z,102.22
2024-02-16T12:15:45.975Z,109.40
2024-02-16T12:18:22.710Z,107.72
2024-02-16T12:21:03.140Z,111.97
2024-02-16T12:23:32.169Z,114.97
2024-02-16T12:25:59.632Z,110.60
2024-02-16T12:28:29.176Z,117.63
2024-02-16T12:30:58.008Z,126.80
2024-02-16T12:33:28.017Z,113.10
2024-02-16T12:35:56.164Z,112.55
2024-02-16T12:38:23.638Z,101.45
2024-02-16T12:40:51.683Z,109.00
2024-02-16T12:43:20.866Z,117.93
2024-02-16T12:45:48.993Z,105.03
2024-02-16T12:48:16.800Z,111.28
2024-02-16T12:50:46.201Z,109.93
2024-02-16T12:53:13.821Z,116.82
2024-02-16T12:55:41.531Z,115.72
2024-02-16T12:58:09.069Z,116.90
2024-02-16T13:00:36.926Z,120.95
2024-02-16T13:03:04.515Z,126.43
2024-02-16T13:05:33.922Z,120.30
2024-02-16T13:08:02.889Z,113.22
2024-02-16T13:10:31.678Z,124.93
2024-02-16T13:12:59.702Z,137.43
2024-02-16T13:15:29.143Z,120.05
2024-02-16T13:17:57.506Z,124.80
2024-02-16T13:20:25.453Z,123.60
2024-02-16T13:22:52.960Z,117.88
2024-02-16T13:25:22.166Z,124.05
2024-02-16T13:27:49.783Z,123.03
2024-02-16T13:30:17.648Z,127.78
2024-02-16T13:32:45.180Z,123.00
2024-02-16T13:35:13.018Z,127.57
2024-02-16T13:37:42.515Z,124.22
2024-02-16T13:40:12.801Z,128.38
2024-02-16T13:42:42.463Z,121.43
2024-02-16T13:45:10.600Z,113.82
2024-02-16T13:47:40.977Z,114.90
2024-02-16T13:50:09.480Z,114.60
2024-02-16T13:52:37.162Z,109.68
2024-02-16T13:55:04.845Z,105.47
2024-02-16T13:57:32.615Z,110.82
2024-02-16T14:00:01.715Z,96.68
2024-02-16T14:02:29.309Z,92.70
2024-02-16T14:04:57.716Z,98.45
2024-02-16T14:07:25.347Z,92.82
2024-02-16T14:09:52.879Z,101.00
2024-02-16T14:12:20.616Z,96.45
2024-02-16T14:14:48.120Z,97.72
2024-02-16T14:17:16.921Z,98.28
2024-02-16T14:19:44.565Z,89.78
2024-02-16T14:22:13.496Z,99.60
2024-02-16T14:24:41.058Z,90.05
2024-02-16T14:27:08.681Z,95.70
2024-02-16T14:29:36.137Z,92.13
2024-02-16T14:32:04.052Z,87.55
2024-02-16T14:34:33.589Z,93.68
2024-02-16T14:37:01.121Z,82.90
2024-02-16T14:39:28.592Z,93.15
2024-02-16T14:41:57.375Z,88.22
2024-02-16T14:44:24.867Z,88.68
2024-02-16T14:46:52.297Z,87.65
2024-02-16T14:49:23.069Z,84.75
2024-02-16T14:51:53.693Z,88.63
2024-02-16T14:54:21.195Z,81.05
2024-02-16T14:56:53.386Z,85.47
2024-02-16T14:59:22.519Z,79.93
2024-02-16T15:01:50.360Z,85.95
2024-02-16T15:04:17.916Z,84.60
2024-02-16T15:06:46.016Z,91.40
2024-02-16T15:09:15.158Z,89.18
2024-02-16T15:11:42.684Z,105.15
2024-02-16T15:14:10.579Z,112.03
2024-02-16T15:16:38.532Z,114.40
2024-02-16T15:19:06.124Z,116.20
2024-02-16T15:21:33.791Z,123.30
2024-02-16T15:24:01.877Z,121.60
2024-02-16T15:26:30.865Z,121.55
2024-02-16T15:28:58.373Z,119.40
2024-02-16T15:31:25.987Z,121.78
2024-02-16T15:33:53.742Z,114.88
2024-02-16T15:36:21.477Z,111.90
2024-02-16T15:38:53.335Z,109.05
2024-02-16T15:41:22.590Z,110.68
2024-02-16T15:43:51.755Z,99.50
2024-02-16T15:46:19.227Z,97.05
2024-02-16T15:48:49.791Z,94.00
2024-02-16T15:51:17.796Z,92.22
2024-02-16T15:53:45.256Z,87.28
2024-02-16T15:56:14.080Z,82.50
2024-02-16T15:58:43.895Z,82.63
2024-02-16T16:01:12.846Z,82.43
2024-02-16T16:03:40.756Z,87.03
2024-02-16T16:06:09.103Z,77.35
2024-02-16T16:08:36.709Z,84.38
2024-02-16T16:11:04.729Z,81.18
2024-02-16T16:13:33.037Z,79.93
2024-02-16T16:16:00.471Z,82.50
2024-02-16T16:18:34.975Z,80.75
2024-02-16T16:21:03.956Z,83.38
2024-02-16T16:23:31.716Z,79.85
2024-02-16T16:26:02.164Z,92.75
2024-02-16T16:28:30.259Z,85.38
2024-02-16T16:30:57.803Z,89.88
2024-02-16T16:33:25.586Z,97.13
2024-02-16T16:35:54.483Z,98.80
2024-02-16T16:38:22.381Z,99.47
2024-02-16T16:40:50.139Z,102.75
2024-02-16T16:43:18.362Z,111.38
2024-02-16T16:45:46.310Z,104.03
2024-02-16T16:48:14.309Z,109.18
2024-02-16T16:50:41.921Z,110.32
2024-02-16T16:53:10.890Z,117.50
2024-02-16T16:55:38.456Z,121.70
2024-02-16T16:58:06.693Z,115.32
2024-02-16T17:00:34.216Z,117.18
2024-02-16T17:03:02.183Z,116.88
2024-02-16T17:05:29.686Z,112.68
2024-02-16T17:07:57.295Z,120.38
2024-02-16T17:10:26.689Z,124.65
2024-02-16T17:12:54.166Z,130.13
2024-02-16T17:15:23.366Z,116.68
2024-02-16T17:17:53.902Z,114.88
2024-02-16T17:20:24.975Z,116.55
2024-02-16T17:22:53.479Z,111.78
2024-02-16T17:25:23.580Z,105.60
2024-02-16T17:27:52.570Z,109.95
2024-02-16T17:30:21.916Z,104.88
2024-02-16T17:32:49.974Z,101.68
2024-02-16T17:35:18.251Z,101.05
2024-02-16T17:37:47.052Z,92.15
2024-02-16T17:40:14.793Z,98.30
2024-02-16T17:42:42.729Z,94.25
2024-02-16T17:45:12.010Z,87.15
2024-02-16T17:47:39.768Z,90.30
2024-02-16T17:50:08.293Z,91.45
2024-02-16T17:52:36.259Z,89.68
2024-02-16T17:55:07.834Z,100.72
2024-02-16T17:57:36.180Z,96.47
2024-02-16T18:00:06.551Z,95.82
2024-02-16T18:02:41.021Z,89.72
2024-02-16T18:05:12.365Z,92.00
2024-02-16T18:07:40.063Z,95.80
2024-02-16T18:10:08.837Z,94.53
2024-02-16T18:12:37.309Z,99.28
2024-02-16T18:15:06.288Z,98.03
2024-02-16T18:17:33.927Z,96.95
2024-02-16T18:20:04.480Z,93.97
2024-02-16T18:22:32.174Z,96.72
2024-02-16T18:25:00.262Z,88.00
2024-02-16T18:27:27.799Z,92.25
2024-02-16T18:29:55.610Z,99.60
2024-02-16T18:32:23.072Z,87.63
2024-02-16T18:34:51.401Z,90.50
2024-02-16T18:37:20.281Z,96.68
2024-02-16T18:39:48.041Z,97.35
2024-02-16T18:42:15.516Z,85.38
2024-02-16T18:44:43.318Z,93.78
2024-02-16T18:47:10.751Z,93.53
2024-02-16T18:49:38.716Z,86.63
2024-02-16T18:52:06.542Z,87.40
2024-02-16T18:54:35.460Z,88.78
2024-02-16T18:57:05.296Z,93.80
2024-02-16T18:59:32.734Z,87.80
2024-02-16T19:02:02.952Z,85.75
2024-02-16T19:04:30.734Z,83.40
2024-02-16T19:06:58.780Z,81.20
2024-02-16T19:09:26.455Z,90.03
2024-02-16T19:11:55.852Z,88.30
2024-02-16T19:14:24.813Z,85.65
2024-02-16T19:16:52.308Z,87.03
2024-02-16T19:19:19.978Z,88.03
2024-02-16T19:21:49.615Z,93.97
2024-02-16T19:24:22.721Z,88.68
2024-02-16T19:26:57.882Z,86.95
2024-02-16T19:29:25.347Z,87.68
2024-02-16T19:31:52.786Z,87.38
2024-02-16T19:34:21.009Z,88.30
2024-02-16T19:36:48.517Z,88.40
2024-02-16T19:39:16.957Z,91.82
2024-02-16T19:41:47.882Z,88.15
2024-02-16T19:44:21.778Z,91.40
2024-02-16T19:46:49.744Z,88.60
2024-02-16T19:49:17.544Z,88.53
2024-02-16T19:51:45.462Z,89.78
2024-02-16T19:54:15.540Z,91.28
2024-02-16T19:56:43.054Z,86.88
2024-02-16T19:59:10.853Z,85.40
2024-02-16T20:01:39.712Z,85.25
2024-02-16T20:04:08.109Z,89.10
2024-02-16T20:06:35.663Z,90.68
2024-02-16T20:09:04.168Z,91.25
2024-02-16T20:11:31.745Z,87.68
2024-02-16T20:13:59.533Z,90.35
2024-02-16T20:16:27.011Z,92.22
2024-02-16T20:18:57.758Z,90.82
2024-02-16T20:21:25.483Z,87.30
2024-02-16T20:23:53.616Z,91.28
2024-02-16T20:26:25.156Z,88.60
2024-02-16T20:28:53.071Z,87.15
2024-02-16T20:31:20.667Z,87.03
2024-02-16T20:33:48.540Z,87.65
2024-02-16T20:36:19.774Z,83.45
2024-02-16T20:38:47.405Z,92.93
2024-02-16T20:41:15.099Z,91.38
2024-02-16T20:43:43.082Z,90.57
2024-02-16T20:46:10.615Z,81.22
2024-02-16T20:48:38.129Z,88.53
2024-02-16T20:51:06.378Z,88.07
2024-02-16T20:53:37.170Z,90.38
2024-02-16T20:56:06.274Z,88.18
2024-02-16T20:58:33.746Z,88.93
2024-02-16T21:01:01.472Z,93.55
2024-02-16T21:03:29.121Z,93.45
2024-02-16T21:05:56.797Z,85.07
2024-02-16T21:08:25.175Z,92.00
2024-02-16T21:10:54.017Z,92.30
2024-02-16T21:13:21.954Z,93.50
2024-02-16T21:15:49.464Z,95.28
2024-02-16T21:18:17.188Z,97.47
2024-02-16T21:20:44.869Z,92.38
2024-02-16T21:23:12.379Z,100.65
2024-02-16T21:25:40.117Z,97.85
2024-02-16T21:28:10.478Z,95.30
2024-02-16T21:30:40.961Z,97.22
2024-02-16T21:33:08.784Z,95.80
2024-02-16T21:35:37.397Z,97.22
2024-02-16T21:38:05.260Z,101.80
2024-02-16T21:40:34.726Z,93.95
2024-02-16T21:43:05.888Z,99.15
2024-02-16T21:45:35.227Z,91.68
2024-02-16T21:48:04.257Z,98.90
2024-02-16T21:50:33.759Z,95.50
2024-02-16T21:53:01.700Z,101.80
2024-02-16T21:55:29.450Z,95.13
2024-02-16T21:57:56.962Z,86.53
2024-02-16T22:00:25.022Z,101.07
2024-02-16T22:02:53.833Z,97.28
2024-02-16T22:05:21.477Z,102.50
2024-02-16T22:07:49.191Z,100.85
2024-02-16T22:10:17.117Z,97.15
2024-02-16T22:12:44.668Z,94.20
2024-02-16T22:15:12.169Z,94.22
2024-02-16T22:17:39.942Z,94.80
2024-02-16T22:20:09.619Z,91.80
2024-02-16T22:22:37.284Z,84.07
2024-02-16T22:25:05.059Z,82.75
2024-02-16T22:27:32.541Z,92.43
2024-02-16T22:30:00.913Z,89.28
2024-02-16T22:32:28.451Z,88.53
2024-02-16T22:34:56.151Z,96.18
2024-02-16T22:37:23.969Z,88.55
2024-02-16T22:39:52.272Z,94.50
2024-02-16T22:42:19.755Z,90.90
2024-02-16T22:44:47.367Z,92.57
2024-02-16T22:47:14.816Z,98.65
2024-02-16T22:49:42.558Z,101.80
2024-02-16T22:52:10.060Z,104.30
2024-02-16T22:54:39.239Z,95.45
2024-02-16T22:57:06.856Z,107.65
2024-02-16T22:59:34.524Z,91.32
2024-02-16T23:02:02.085Z,98.57
2024-02-16T23:04:29.933Z,95.15
2024-02-16T23:06:57.818Z,95.72
2024-02-16T23:09:25.786Z,96.32
2024-02-16T23:11:54.581Z,98.80
2024-02-16T23:14:22.349Z,84.82
2024-02-16T23:16:49.908Z,88.03
2024-02-16T23:19:17.500Z,88.10
2024-02-16T23:21:45.551Z,82.03
2024-02-16T23:24:13.378Z,81.03
2024-02-16T23:26:40.920Z,77.95
2024-02-16T23:29:12.196Z,81.20
2024-02-16T23:31:39.940Z,82.45
2024-02-16T23:34:07.601Z,83.78
2024-02-16T23:36:35.428Z,84.97
2024-02-16T23:39:02.974Z,86.03
2024-02-16T23:41:31.022Z,80.43
2024-02-16T23:43:58.513Z,82.68
2024-02-16T23:46:27.307Z,84.93
2024-02-16T23:48:55.087Z,87.22
2024-02-16T23:51:22.623Z,83.63
2024-02-16T23:53:50.444Z,74.43
2024-02-16T23:56:17.908Z,83.18
2024-02-16T23:58:45.650Z,77.78
